createdAt,value
2017-02-05T00:00:47.421Z,0
2017-02-05T00:02:00.966Z,0
2017-02-05T00:03:14.416Z,0
2017-02-05T00:04:28.023Z,0
2017-02-05T00:05:41.810Z,0
2017-02-05T00:06:55.480Z,0
2017-02-05T00:08:08.915Z,0
2017-02-05T00:09:22.466Z,0
2017-02-05T00:10:38.724Z,0
2017-02-05T00:11:52.880Z,0
2017-02-05T00:13:06.386Z,0
2017-02-05T00:14:19.879Z,0
2017-02-05T00:15:33.862Z,0
2017-02-05T00:16:47.332Z,0
2017-02-05T00:18:01.246Z,0
2017-02-05T00:19:14.723Z,0
2017-02-05T00:20:28.668Z,0
2017-02-05T00:21:42.134Z,0
2017-02-05T00:22:55.665Z,0
2017-02-05T00:24:09.839Z,0
2017-02-05T00:25:23.620Z,0
2017-02-05T00:26:37.118Z,0
2017-02-05T00:27:50.684Z,0
2017-02-05T00:29:04.545Z,0
2017-02-05T00:30:18.390Z,0
2017-02-05T00:31:31.828Z,0
2017-02-05T00:32:46.366Z,0
2017-02-05T00:33:59.864Z,0
2017-02-05T00:35:13.417Z,0
2017-02-05T00:36:27.538Z,0
2017-02-05T00:37:41.137Z,0
2017-02-05T00:38:54.558Z,0
2017-02-05T00:40:08.921Z,0
2017-02-05T00:41:22.366Z,0
2017-02-05T00:42:36.202Z,0
2017-02-05T00:43:49.625Z,0
2017-02-05T00:45:03.572Z,0
2017-02-05T00:46:16.997Z,0
2017-02-05T00:47:30.592Z,0
2017-02-05T00:48:44.388Z,0
2017-02-05T00:49:57.917Z,0
2017-02-05T00:51:11.339Z,0
2017-02-05T00:52:25.304Z,0
2017-02-05T00:53:38.804Z,0
2017-02-05T00:54:52.646Z,0
2017-02-05T00:56:06.166Z,0
2017-02-05T00:57:19.874Z,0
2017-02-05T00:58:33.338Z,0
2017-02-05T00:59:46.951Z,0
2017-02-05T01:01:00.674Z,0
2017-02-05T01:02:14.619Z,0
2017-02-05T01:03:28.295Z,0
2017-02-05T01:04:42.303Z,0
2017-02-05T01:05:55.755Z,0
2017-02-05T01:07:09.583Z,0
2017-02-05T01:08:23.016Z,0
2017-02-05T01:09:36.735Z,0
2017-02-05T01:10:50.201Z,0
2017-02-05T01:12:03.861Z,0
2017-02-05T01:13:18.090Z,0
2017-02-05T01:14:31.741Z,0
2017-02-05T01:15:45.210Z,0
2017-02-05T01:16:59.135Z,0
2017-02-05T01:18:12.591Z,0
2017-02-05T01:19:26.460Z,0
2017-02-05T01:20:40.354Z,0
2017-02-05T01:21:54.310Z,0
2017-02-05T01:23:07.726Z,0
2017-02-05T01:24:21.289Z,0
2017-02-05T01:25:35.473Z,0
2017-02-05T01:26:51.308Z,0
2017-02-05T01:28:04.746Z,0
2017-02-05T01:29:18.349Z,0
2017-02-05T01:30:31.870Z,0
2017-02-05T01:31:45.701Z,0
2017-02-05T01:32:59.361Z,0
2017-02-05T01:34:12.928Z,0
2017-02-05T01:35:26.477Z,0
2017-02-05T01:36:40.399Z,0
2017-02-05T01:37:54.090Z,0
2017-02-05T01:39:07.597Z,0
2017-02-05T01:40:21.420Z,0
2017-02-05T01:41:34.993Z,0
2017-02-05T01:42:48.870Z,0
2017-02-05T01:44:03.536Z,0
2017-02-05T01:45:17.474Z,0
2017-02-05T01:46:31.043Z,0
2017-02-05T01:47:44.466Z,0
2017-02-05T01:48:57.983Z,0
2017-02-05T01:50:11.682Z,0
2017-02-05T01:51:25.250Z,0
2017-02-05T01:52:39.066Z,0
2017-02-05T01:53:52.694Z,0
2017-02-05T01:55:06.090Z,0
2017-02-05T01:56:20.342Z,0
2017-02-05T01:57:34.716Z,0
2017-02-05T01:58:48.665Z,0
2017-02-05T02:00:02.100Z,0
2017-02-05T02:01:15.661Z,0
2017-02-05T02:02:30.213Z,0
2017-02-05T02:03:43.739Z,0
2017-02-05T02:04:57.572Z,0
2017-02-05T02:06:11.244Z,0
2017-02-05T02:07:24.746Z,0
2017-02-05T02:08:38.584Z,0
2017-02-05T02:09:52.044Z,0
2017-02-05T02:11:06.384Z,0
2017-02-05T02:12:19.805Z,0
2017-02-05T02:13:33.389Z,0
2017-02-05T02:14:47.501Z,0
2017-02-05T02:16:01.056Z,0
2017-02-05T02:17:14.487Z,0
2017-02-05T02:18:28.075Z,0
2017-02-05T02:19:41.881Z,0
2017-02-05T02:20:55.708Z,0
2017-02-05T02:22:09.991Z,0
2017-02-05T02:23:23.618Z,0
2017-02-05T02:24:37.028Z,0
2017-02-05T02:25:50.565Z,0
2017-02-05T02:27:04.815Z,0
2017-02-05T02:28:18.330Z,0
2017-02-05T02:29:31.888Z,0
2017-02-05T02:30:45.834Z,0
2017-02-05T02:31:59.270Z,0
2017-02-05T02:33:13.421Z,0
2017-02-05T02:34:26.912Z,0
2017-02-05T02:35:40.466Z,0
2017-02-05T02:36:53.863Z,0
2017-02-05T02:38:07.397Z,0
2017-02-05T02:39:21.431Z,0
2017-02-05T02:40:35.018Z,0
2017-02-05T02:41:48.866Z,0
2017-02-05T02:43:04.551Z,0
2017-02-05T02:44:18.409Z,0
2017-02-05T02:45:32.253Z,0
2017-02-05T02:46:45.704Z,0
2017-02-05T02:47:59.406Z,0
2017-02-05T02:49:12.870Z,0
2017-02-05T02:50:26.647Z,0
2017-02-05T02:51:40.387Z,0
2017-02-05T02:52:53.946Z,0
2017-02-05T02:54:07.884Z,0
2017-02-05T02:55:21.410Z,0
2017-02-05T02:56:35.285Z,0
2017-02-05T02:57:49.559Z,0
2017-02-05T02:59:03.377Z,0
2017-02-05T03:00:17.091Z,0
2017-02-05T03:01:31.389Z,0
2017-02-05T03:02:44.959Z,0
2017-02-05T03:03:58.704Z,0
2017-02-05T03:05:12.637Z,0
2017-02-05T03:06:26.143Z,0
2017-02-05T03:07:39.745Z,0
2017-02-05T03:08:54.009Z,0
2017-02-05T03:10:07.804Z,0
2017-02-05T03:11:21.730Z,0
2017-02-05T03:12:35.246Z,0
2017-02-05T03:13:48.706Z,0
2017-02-05T03:15:02.811Z,0
2017-02-05T03:16:16.516Z,0
2017-02-05T03:17:30.116Z,0
2017-02-05T03:18:43.523Z,0
2017-02-05T03:19:57.048Z,0
2017-02-05T03:21:10.502Z,0
2017-02-05T03:22:24.425Z,0
2017-02-05T03:23:38.464Z,0
2017-02-05T03:24:52.017Z,0
2017-02-05T03:26:05.443Z,0
2017-02-05T03:27:19.016Z,0
2017-02-05T03:28:32.815Z,0
2017-02-05T03:29:46.335Z,0
2017-02-05T03:30:59.829Z,0
2017-02-05T03:32:13.900Z,0
2017-02-05T03:33:27.451Z,0
2017-02-05T03:34:41.267Z,0
2017-02-05T03:35:55.114Z,0
2017-02-05T03:37:08.636Z,0
2017-02-05T03:38:22.096Z,0
2017-02-05T03:39:36.066Z,0
2017-02-05T03:40:49.798Z,0
2017-02-05T03:42:03.757Z,0
2017-02-05T03:43:17.229Z,0
2017-02-05T03:44:30.813Z,0
2017-02-05T03:45:44.356Z,0
2017-02-05T03:46:58.296Z,0
2017-02-05T03:48:12.131Z,0
2017-02-05T03:49:25.758Z,0
2017-02-05T03:50:39.183Z,0
2017-02-05T03:51:53.148Z,0
2017-02-05T03:53:07.278Z,0
2017-02-05T03:54:20.893Z,0
2017-02-05T03:55:35.059Z,0
2017-02-05T03:56:49.001Z,0
2017-02-05T03:58:03.271Z,0
2017-02-05T03:59:20.818Z,0
2017-02-05T04:00:34.248Z,0
2017-02-05T04:01:47.901Z,0
2017-02-05T04:03:01.727Z,0
2017-02-05T04:04:15.346Z,0
2017-02-05T04:05:29.050Z,0
2017-02-05T04:06:42.591Z,0
2017-02-05T04:07:56.971Z,0
2017-02-05T04:09:10.498Z,0
2017-02-05T04:10:23.978Z,0
2017-02-05T04:11:37.775Z,0
2017-02-05T04:12:51.221Z,0
2017-02-05T04:14:04.893Z,0
2017-02-05T04:15:18.606Z,0
2017-02-05T04:16:32.152Z,0
2017-02-05T04:17:45.941Z,0
2017-02-05T04:18:59.655Z,0
2017-02-05T04:20:13.090Z,0
2017-02-05T04:21:26.681Z,0
2017-02-05T04:22:41.279Z,0
2017-02-05T04:23:55.100Z,0
2017-02-05T04:25:08.560Z,0
2017-02-05T04:26:22.533Z,0
2017-02-05T04:27:35.967Z,0
2017-02-05T04:28:49.596Z,0
2017-02-05T04:30:03.296Z,0
2017-02-05T04:31:16.861Z,0
2017-02-05T04:32:31.130Z,0
2017-02-05T04:33:45.110Z,0
2017-02-05T04:34:58.658Z,0
2017-02-05T04:36:12.541Z,0
2017-02-05T04:37:26.398Z,0
2017-02-05T04:38:40.391Z,0
2017-02-05T04:39:54.213Z,0
2017-02-05T04:41:08.139Z,0
2017-02-05T04:42:21.886Z,0
2017-02-05T04:43:35.869Z,0
2017-02-05T04:44:49.266Z,0
2017-02-05T04:46:02.770Z,0
2017-02-05T04:47:16.254Z,0
2017-02-05T04:48:30.479Z,0
2017-02-05T04:49:43.879Z,0
2017-02-05T04:51:05.229Z,0
2017-02-05T04:52:26.335Z,0
2017-02-05T04:53:42.295Z,0
2017-02-05T04:54:56.091Z,0
2017-02-05T04:56:09.834Z,0
2017-02-05T04:57:24.206Z,0
2017-02-05T04:58:38.193Z,0
2017-02-05T04:59:51.647Z,0
2017-02-05T05:01:08.407Z,0
2017-02-05T05:02:23.605Z,0
2017-02-05T05:03:37.058Z,0
2017-02-05T05:04:50.895Z,0
2017-02-05T05:06:10.602Z,0
2017-02-05T05:07:28.745Z,0
2017-02-05T05:08:42.308Z,0
2017-02-05T05:09:56.354Z,0
2017-02-05T05:11:09.952Z,0
2017-02-05T05:12:23.828Z,0
2017-02-05T05:13:37.651Z,0
2017-02-05T05:14:51.226Z,0
2017-02-05T05:16:06.930Z,0
2017-02-05T05:17:20.454Z,0
2017-02-05T05:18:34.416Z,0
2017-02-05T05:19:48.584Z,0
2017-02-05T05:21:02.188Z,0
2017-02-05T05:22:15.656Z,0
2017-02-05T05:23:29.255Z,0
2017-02-05T05:24:42.867Z,0
2017-02-05T05:25:56.762Z,0
2017-02-05T05:27:10.345Z,0
2017-02-05T05:28:23.940Z,0
2017-02-05T05:29:38.038Z,0
2017-02-05T05:30:54.516Z,0
2017-02-05T05:32:08.992Z,0
2017-02-05T05:33:22.865Z,0
2017-02-05T05:34:36.439Z,0
2017-02-05T05:35:50.882Z,0
2017-02-05T05:37:19.005Z,0
2017-02-05T05:38:35.958Z,0
2017-02-05T05:39:53.048Z,0
2017-02-05T05:41:09.359Z,0
2017-02-05T05:42:23.971Z,0
2017-02-05T05:43:56.921Z,0
2017-02-05T05:45:10.881Z,0
2017-02-05T05:46:25.107Z,0
2017-02-05T05:47:38.839Z,0
2017-02-05T05:48:52.379Z,0
2017-02-05T05:50:06.299Z,0
2017-02-05T05:53:02.075Z,0
2017-02-05T05:54:16.573Z,0
2017-02-05T05:55:31.399Z,0
2017-02-05T05:56:47.363Z,0
2017-02-05T05:58:02.372Z,0
2017-02-05T05:59:31.775Z,0
2017-02-05T06:00:46.703Z,0
2017-02-05T06:02:00.196Z,0
2017-02-05T06:03:13.722Z,0
2017-02-05T06:04:27.221Z,0
2017-02-05T06:05:40.960Z,0
2017-02-05T06:06:54.367Z,0
2017-02-05T06:08:07.964Z,0
2017-02-05T06:09:21.379Z,0
2017-02-05T06:10:35.749Z,0
2017-02-05T06:11:49.258Z,0
2017-02-05T06:13:02.856Z,0
2017-02-05T06:14:17.066Z,0
2017-02-05T06:15:31.016Z,0
2017-02-05T06:16:44.438Z,0
2017-02-05T06:17:57.915Z,0
2017-02-05T06:19:11.414Z,0
2017-02-05T06:20:25.439Z,0
2017-02-05T06:21:39.338Z,0
2017-02-05T06:22:52.867Z,0
2017-02-05T06:24:06.744Z,0
2017-02-05T06:25:20.791Z,0
2017-02-05T06:26:34.201Z,0
2017-02-05T06:27:48.612Z,0
2017-02-05T06:29:02.454Z,0
2017-02-05T06:30:16.099Z,0
2017-02-05T06:31:29.546Z,0
2017-02-05T06:32:44.588Z,0
2017-02-05T06:33:57.997Z,0
2017-02-05T06:35:14.129Z,0
2017-02-05T06:36:28.188Z,0
2017-02-05T06:37:41.699Z,0
2017-02-05T06:38:55.194Z,0
2017-02-05T06:40:08.796Z,0
2017-02-05T06:41:22.246Z,0
2017-02-05T06:42:35.828Z,0
2017-02-05T06:43:49.654Z,0
2017-02-05T06:45:03.178Z,0
2017-02-05T06:46:17.155Z,0
2017-02-05T06:47:30.839Z,0
2017-02-05T06:48:44.282Z,0
2017-02-05T06:49:57.823Z,5
2017-02-05T06:51:12.476Z,5
2017-02-05T06:52:26.904Z,5
2017-02-05T06:53:40.337Z,5
2017-02-05T06:54:54.305Z,5
2017-02-05T06:56:08.619Z,5
2017-02-05T06:57:22.262Z,5
2017-02-05T06:58:35.741Z,10
2017-02-05T06:59:49.565Z,10
2017-02-05T07:01:03.441Z,10
2017-02-05T07:02:16.988Z,10
2017-02-05T07:03:30.472Z,10
2017-02-05T07:04:44.089Z,15
2017-02-05T07:05:57.568Z,15
2017-02-05T07:07:11.098Z,15
2017-02-05T07:08:24.678Z,15
2017-02-05T07:09:38.379Z,15
2017-02-05T07:10:51.978Z,20
2017-02-05T07:12:05.504Z,20
2017-02-05T07:13:18.993Z,20
2017-02-05T07:14:32.928Z,20
2017-02-05T07:15:47.172Z,20
2017-02-05T07:17:00.704Z,25
2017-02-05T07:18:14.137Z,25
2017-02-05T07:19:27.924Z,25
2017-02-05T07:20:41.360Z,25
2017-02-05T07:21:55.334Z,30
2017-02-05T07:23:08.785Z,30
2017-02-05T07:24:22.372Z,30
2017-02-05T07:25:36.009Z,30
2017-02-05T07:26:49.947Z,30
2017-02-05T07:28:03.416Z,35
2017-02-05T07:29:17.181Z,35
2017-02-05T07:30:31.074Z,35
2017-02-05T07:31:44.588Z,40
2017-02-05T07:32:58.248Z,40
2017-02-05T07:34:11.779Z,40
2017-02-05T07:35:25.323Z,40
2017-02-05T07:36:38.836Z,40
2017-02-05T07:37:52.311Z,40
2017-02-05T07:39:05.910Z,45
2017-02-05T07:40:20.336Z,45
2017-02-05T07:41:34.282Z,45
2017-02-05T07:42:47.882Z,45
2017-02-05T07:44:02.267Z,45
2017-02-05T07:45:15.847Z,50
2017-02-05T07:46:29.414Z,50
2017-02-05T07:47:43.318Z,50
2017-02-05T07:48:57.715Z,50
2017-02-05T07:50:11.616Z,55
2017-02-05T07:51:27.324Z,55
2017-02-05T07:52:40.810Z,55
2017-02-05T07:53:54.876Z,50
2017-02-05T07:55:08.360Z,50
2017-02-05T07:56:22.408Z,50
2017-02-05T07:57:36.267Z,50
2017-02-05T07:58:50.265Z,50
2017-02-05T08:00:04.669Z,50
2017-02-05T08:01:18.290Z,50
2017-02-05T08:02:31.795Z,50
2017-02-05T08:03:45.725Z,50
2017-02-05T08:04:59.348Z,55
2017-02-05T08:06:13.108Z,55
2017-02-05T08:07:27.061Z,55
2017-02-05T08:08:40.794Z,60
2017-02-05T08:09:54.836Z,60
2017-02-05T08:11:09.280Z,60
2017-02-05T08:12:22.890Z,65
2017-02-05T08:13:36.868Z,65
2017-02-05T08:14:50.717Z,70
2017-02-05T08:16:04.666Z,70
2017-02-05T08:17:18.141Z,75
2017-02-05T08:18:32.155Z,75
2017-02-05T08:19:45.592Z,75
2017-02-05T08:20:59.701Z,80
2017-02-05T08:22:13.971Z,80
2017-02-05T08:23:27.699Z,80
2017-02-05T08:24:42.043Z,80
2017-02-05T08:25:57.520Z,80
2017-02-05T08:27:14.814Z,80
2017-02-05T08:28:30.960Z,85
2017-02-05T08:29:45.514Z,85
2017-02-05T08:30:59.063Z,85
2017-02-05T08:32:13.201Z,85
2017-02-05T08:33:26.761Z,85
2017-02-05T08:34:40.762Z,80
2017-02-05T08:35:54.253Z,80
2017-02-05T08:37:08.695Z,75
2017-02-05T08:38:22.658Z,75
2017-02-05T08:39:37.177Z,75
2017-02-05T08:40:51.537Z,75
2017-02-05T08:42:18.341Z,75
2017-02-05T08:43:32.104Z,80
2017-02-05T08:44:45.680Z,85
2017-02-05T08:45:59.778Z,85
2017-02-05T08:47:13.680Z,90
2017-02-05T08:48:28.667Z,95
2017-02-05T08:49:42.267Z,95
2017-02-05T08:50:56.358Z,100
2017-02-05T08:52:09.825Z,105
2017-02-05T08:53:24.339Z,110
2017-02-05T08:54:38.619Z,110
2017-02-05T08:55:52.982Z,110
2017-02-05T08:57:06.439Z,115
2017-02-05T08:58:19.960Z,120
2017-02-05T08:59:33.435Z,120
2017-02-05T09:01:00.509Z,120
2017-02-05T09:02:14.149Z,120
2017-02-05T09:03:27.933Z,115
2017-02-05T09:04:42.046Z,120
2017-02-05T09:05:55.541Z,115
2017-02-05T09:07:10.651Z,110
2017-02-05T09:08:26.926Z,110
2017-02-05T09:09:40.872Z,110
2017-02-05T09:10:54.877Z,110
2017-02-05T09:12:08.813Z,105
2017-02-05T09:13:41.578Z,105
2017-02-05T09:14:55.140Z,105
2017-02-05T09:16:08.602Z,105
2017-02-05T09:17:22.490Z,110
2017-02-05T09:18:36.415Z,110
2017-02-05T09:19:50.721Z,115
2017-02-05T09:21:04.662Z,125
2017-02-05T09:22:18.927Z,130
2017-02-05T09:23:32.605Z,130
2017-02-05T09:25:03.616Z,135
2017-02-05T09:26:17.596Z,140
2017-02-05T09:27:31.055Z,140
2017-02-05T09:28:44.633Z,140
2017-02-05T09:29:58.079Z,145
2017-02-05T09:31:11.908Z,145
2017-02-05T09:32:25.336Z,150
2017-02-05T09:33:39.044Z,155
2017-02-05T09:34:52.601Z,155
2017-02-05T09:36:06.294Z,155
2017-02-05T09:37:20.890Z,155
2017-02-05T09:38:35.858Z,160
2017-02-05T09:39:49.858Z,155
2017-02-05T09:41:03.923Z,155
2017-02-05T09:42:17.417Z,165
2017-02-05T09:43:31.712Z,165
2017-02-05T09:44:45.241Z,155
2017-02-05T09:45:59.326Z,155
2017-02-05T09:47:13.052Z,155
2017-02-05T09:48:26.966Z,155
2017-02-05T09:49:41.471Z,155
2017-02-05T09:50:56.003Z,160
2017-02-05T09:52:09.975Z,155
2017-02-05T09:53:24.518Z,155
2017-02-05T09:54:38.675Z,160
2017-02-05T09:55:52.613Z,160
2017-02-05T09:57:06.147Z,165
2017-02-05T09:58:20.314Z,160
2017-02-05T09:59:34.650Z,155
2017-02-05T10:00:57.759Z,155
2017-02-05T10:02:33.755Z,150
2017-02-05T10:03:48.352Z,155
2017-02-05T10:05:01.929Z,145
2017-02-05T10:06:16.234Z,140
2017-02-05T10:07:30.583Z,135
2017-02-05T10:08:46.153Z,130
2017-02-05T10:09:59.650Z,120
2017-02-05T10:11:13.671Z,110
2017-02-05T10:12:27.527Z,110
2017-02-05T10:13:41.638Z,110
2017-02-05T10:14:56.831Z,105
2017-02-05T10:16:11.254Z,110
2017-02-05T10:17:25.468Z,105
2017-02-05T10:18:39.376Z,105
2017-02-05T10:19:53.021Z,105
2017-02-05T10:21:07.695Z,105
2017-02-05T10:22:21.421Z,105
2017-02-05T10:23:35.617Z,105
2017-02-05T10:24:49.472Z,110
2017-02-05T10:26:06.201Z,110
2017-02-05T10:27:20.364Z,115
2017-02-05T10:28:34.015Z,115
2017-02-05T10:29:47.451Z,120
2017-02-05T10:31:01.086Z,115
2017-02-05T10:32:14.687Z,115
2017-02-05T10:33:29.240Z,120
2017-02-05T10:34:43.178Z,130
2017-02-05T10:35:57.241Z,140
2017-02-05T10:37:11.058Z,145
2017-02-05T10:38:24.728Z,150
2017-02-05T10:39:38.456Z,145
2017-02-05T10:40:52.209Z,140
2017-02-05T10:42:06.774Z,135
2017-02-05T10:43:20.681Z,130
2017-02-05T10:44:34.357Z,125
2017-02-05T10:45:49.283Z,120
2017-02-05T10:47:04.272Z,115
2017-02-05T10:48:18.486Z,115
2017-02-05T10:49:32.246Z,110
2017-02-05T10:50:45.806Z,110
2017-02-05T10:51:59.922Z,110
2017-02-05T10:53:13.989Z,110
2017-02-05T10:54:28.148Z,110
2017-02-05T10:55:51.470Z,105
2017-02-05T10:57:05.046Z,105
2017-02-05T10:58:19.792Z,105
2017-02-05T10:59:33.919Z,110
2017-02-05T11:00:47.814Z,115
2017-02-05T11:02:01.467Z,120
2017-02-05T11:03:15.101Z,125
2017-02-05T11:04:29.399Z,125
2017-02-05T11:05:42.989Z,125
2017-02-05T11:06:57.908Z,120
2017-02-05T11:08:11.911Z,120
2017-02-05T11:09:25.765Z,120
2017-02-05T11:10:39.345Z,120
2017-02-05T11:11:53.752Z,120
2017-02-05T11:13:07.738Z,120
2017-02-05T11:14:22.398Z,115
2017-02-05T11:15:36.526Z,115
2017-02-05T11:16:50.692Z,120
2017-02-05T11:18:04.701Z,120
2017-02-05T11:19:18.651Z,120
2017-02-05T11:20:33.170Z,125
2017-02-05T11:21:47.109Z,130
2017-02-05T11:23:01.139Z,135
2017-02-05T11:24:15.348Z,145
2017-02-05T11:25:29.569Z,145
2017-02-05T11:26:43.160Z,140
2017-02-05T11:27:56.709Z,145
2017-02-05T11:29:10.262Z,145
2017-02-05T11:30:24.017Z,155
2017-02-05T11:31:37.862Z,160
2017-02-05T11:32:52.267Z,160
2017-02-05T11:34:05.898Z,160
2017-02-05T11:35:19.348Z,155
2017-02-05T11:36:33.371Z,150
2017-02-05T11:37:47.219Z,145
2017-02-05T11:39:01.081Z,145
2017-02-05T11:40:14.532Z,150
2017-02-05T11:41:28.256Z,150
2017-02-05T11:42:44.117Z,145
2017-02-05T11:43:59.101Z,145
2017-02-05T11:45:12.739Z,140
2017-02-05T11:46:26.223Z,140
2017-02-05T11:47:40.675Z,140
2017-02-05T11:48:54.171Z,140
2017-02-05T11:50:08.023Z,145
2017-02-05T11:51:22.148Z,150
2017-02-05T11:52:36.654Z,145
2017-02-05T11:53:50.153Z,145
2017-02-05T11:55:04.061Z,145
2017-02-05T11:56:18.289Z,150
2017-02-05T11:57:31.831Z,150
2017-02-05T11:58:46.979Z,150
2017-02-05T12:00:00.620Z,145
2017-02-05T12:01:14.061Z,145
2017-02-05T12:02:28.396Z,140
2017-02-05T12:03:41.928Z,145
2017-02-05T12:04:55.950Z,145
2017-02-05T12:06:09.373Z,150
2017-02-05T12:07:23.352Z,155
2017-02-05T12:08:37.180Z,155
2017-02-05T12:09:51.230Z,160
2017-02-05T12:11:04.905Z,160
2017-02-05T12:12:18.498Z,165
2017-02-05T12:13:32.179Z,165
2017-02-05T12:14:47.092Z,160
2017-02-05T12:16:01.095Z,160
2017-02-05T12:17:14.655Z,160
2017-02-05T12:18:29.168Z,160
2017-02-05T12:19:43.171Z,160
2017-02-05T12:20:57.111Z,150
2017-02-05T12:22:39.215Z,145
2017-02-05T12:23:53.249Z,140
2017-02-05T12:25:07.377Z,135
2017-02-05T12:26:21.116Z,135
2017-02-05T12:27:37.134Z,135
2017-02-05T12:28:50.774Z,130
2017-02-05T12:30:04.204Z,130
2017-02-05T12:31:18.638Z,130
2017-02-05T12:32:32.086Z,130
2017-02-05T12:33:45.702Z,125
2017-02-05T12:34:59.380Z,125
2017-02-05T12:36:13.370Z,125
2017-02-05T12:37:27.687Z,125
2017-02-05T12:38:42.238Z,125
2017-02-05T12:39:55.869Z,125
2017-02-05T12:41:10.430Z,125
2017-02-05T12:42:24.093Z,125
2017-02-05T12:43:37.730Z,125
2017-02-05T12:44:51.601Z,125
2017-02-05T12:46:06.567Z,125
2017-02-05T12:47:20.878Z,125
2017-02-05T12:48:35.349Z,125
2017-02-05T12:49:50.127Z,125
2017-02-05T12:51:04.466Z,125
2017-02-05T12:52:17.956Z,130
2017-02-05T12:53:31.693Z,130
2017-02-05T12:54:45.456Z,130
2017-02-05T12:55:59.118Z,135
2017-02-05T12:57:12.641Z,135
2017-02-05T12:58:28.528Z,145
2017-02-05T12:59:45.360Z,140
2017-02-05T13:00:59.230Z,140
2017-02-05T13:02:13.102Z,145
2017-02-05T13:03:27.382Z,145
2017-02-05T13:04:40.956Z,145
2017-02-05T13:05:54.465Z,150
2017-02-05T13:07:08.461Z,150
2017-02-05T13:08:22.185Z,150
2017-02-05T13:09:35.810Z,150
2017-02-05T13:10:49.270Z,145
2017-02-05T13:12:02.919Z,140
2017-02-05T13:13:16.422Z,140
2017-02-05T13:14:30.042Z,145
2017-02-05T13:15:45.060Z,145
2017-02-05T13:16:58.629Z,145
2017-02-05T13:18:12.077Z,150
2017-02-05T13:19:26.041Z,150
2017-02-05T13:20:39.943Z,145
2017-02-05T13:21:53.503Z,145
2017-02-05T13:23:07.675Z,145
2017-02-05T13:24:21.524Z,145
2017-02-05T13:25:35.015Z,145
2017-02-05T13:26:48.612Z,140
2017-02-05T13:28:02.050Z,140
2017-02-05T13:29:15.667Z,140
2017-02-05T13:30:30.045Z,140
2017-02-05T13:31:43.686Z,140
2017-02-05T13:32:57.254Z,140
2017-02-05T13:34:11.462Z,140
2017-02-05T13:35:26.169Z,140
2017-02-05T13:36:40.132Z,135
2017-02-05T13:37:53.588Z,135
2017-02-05T13:39:08.098Z,130
2017-02-05T13:40:21.950Z,125
2017-02-05T13:41:35.530Z,120
2017-02-05T13:42:49.407Z,115
2017-02-05T13:44:02.986Z,115
2017-02-05T13:45:16.571Z,110
2017-02-05T13:46:30.133Z,115
2017-02-05T13:47:44.064Z,110
2017-02-05T13:48:57.673Z,110
2017-02-05T13:50:11.335Z,110
2017-02-05T13:51:25.065Z,110
2017-02-05T13:52:38.895Z,110
2017-02-05T13:53:53.049Z,105
2017-02-05T13:55:07.491Z,105
2017-02-05T13:56:21.483Z,105
2017-02-05T13:57:35.180Z,100
2017-02-05T13:58:48.840Z,100
2017-02-05T14:00:02.392Z,100
2017-02-05T14:01:16.410Z,100
2017-02-05T14:02:30.213Z,100
2017-02-05T14:03:44.282Z,95
2017-02-05T14:04:59.369Z,95
2017-02-05T14:06:13.145Z,90
2017-02-05T14:07:27.063Z,90
2017-02-05T14:08:40.617Z,90
2017-02-05T14:09:54.469Z,95
2017-02-05T14:11:09.092Z,95
2017-02-05T14:12:23.017Z,95
2017-02-05T14:13:37.177Z,100
2017-02-05T14:14:50.806Z,100
2017-02-05T14:16:06.816Z,100
2017-02-05T14:17:20.392Z,100
2017-02-05T14:18:34.062Z,100
2017-02-05T14:19:47.939Z,95
2017-02-05T14:21:01.583Z,100
2017-02-05T14:22:15.530Z,100
2017-02-05T14:23:29.152Z,100
2017-02-05T14:24:42.631Z,95
2017-02-05T14:25:56.784Z,90
2017-02-05T14:27:10.397Z,90
2017-02-05T14:28:24.817Z,90
2017-02-05T14:29:38.270Z,85
2017-02-05T14:30:52.357Z,85
2017-02-05T14:32:06.016Z,85
2017-02-05T14:33:19.635Z,80
2017-02-05T14:34:33.522Z,80
2017-02-05T14:35:47.138Z,80
2017-02-05T14:37:00.803Z,75
2017-02-05T14:38:14.438Z,75
2017-02-05T14:39:28.040Z,75
2017-02-05T14:40:41.681Z,75
2017-02-05T14:41:55.162Z,75
2017-02-05T14:43:08.770Z,80
2017-02-05T14:44:22.266Z,80
2017-02-05T14:45:36.076Z,80
2017-02-05T14:46:50.035Z,80
2017-02-05T14:48:03.771Z,80
2017-02-05T14:49:17.616Z,75
2017-02-05T14:50:31.863Z,75
2017-02-05T14:51:45.773Z,75
2017-02-05T14:52:59.426Z,75
2017-02-05T14:54:13.730Z,70
2017-02-05T14:55:27.338Z,70
2017-02-05T14:56:40.809Z,65
2017-02-05T14:57:54.813Z,65
2017-02-05T14:59:09.202Z,60
2017-02-05T15:00:23.302Z,60
2017-02-05T15:01:36.787Z,60
2017-02-05T15:02:50.356Z,60
2017-02-05T15:04:03.880Z,60
2017-02-05T15:05:17.458Z,55
2017-02-05T15:06:31.227Z,55
2017-02-05T15:07:45.224Z,55
2017-02-05T15:08:58.725Z,55
2017-02-05T15:10:12.703Z,55
2017-02-05T15:11:26.188Z,55
2017-02-05T15:12:40.214Z,55
2017-02-05T15:13:53.998Z,55
2017-02-05T15:15:08.173Z,55
2017-02-05T15:16:22.076Z,50
2017-02-05T15:17:36.163Z,50
2017-02-05T15:18:49.782Z,50
2017-02-05T15:20:03.457Z,50
2017-02-05T15:21:16.946Z,45
2017-02-05T15:22:30.832Z,45
2017-02-05T15:23:45.301Z,45
2017-02-05T15:24:59.971Z,40
2017-02-05T15:26:14.503Z,40
2017-02-05T15:27:28.626Z,40
2017-02-05T15:28:42.520Z,40
2017-02-05T15:29:56.139Z,35
2017-02-05T15:31:09.781Z,35
2017-02-05T15:32:26.659Z,35
2017-02-05T15:33:40.368Z,35
2017-02-05T15:34:54.116Z,35
2017-02-05T15:36:07.693Z,30
2017-02-05T15:37:21.677Z,30
2017-02-05T15:38:36.099Z,30
2017-02-05T15:39:49.955Z,30
2017-02-05T15:41:04.755Z,30
2017-02-05T15:42:18.511Z,25
2017-02-05T15:43:32.119Z,25
2017-02-05T15:44:45.930Z,25
2017-02-05T15:45:59.674Z,25
2017-02-05T15:47:13.397Z,25
2017-02-05T15:48:26.855Z,25
2017-02-05T15:49:40.455Z,20
2017-02-05T15:50:54.361Z,20
2017-02-05T15:52:08.409Z,20
2017-02-05T15:53:22.313Z,20
2017-02-05T15:54:36.996Z,15
2017-02-05T15:55:50.516Z,15
2017-02-05T15:57:04.555Z,15
2017-02-05T15:58:18.560Z,15
2017-02-05T15:59:32.249Z,15
2017-02-05T16:00:45.680Z,10
2017-02-05T16:01:59.338Z,10
2017-02-05T16:03:12.795Z,10
2017-02-05T16:04:26.538Z,10
2017-02-05T16:05:40.026Z,10
2017-02-05T16:06:54.693Z,5
2017-02-05T16:08:08.193Z,5
2017-02-05T16:09:21.789Z,5
2017-02-05T16:10:35.683Z,5
2017-02-05T16:11:49.699Z,5
2017-02-05T16:13:03.791Z,5
2017-02-05T16:14:17.376Z,5
2017-02-05T16:15:30.875Z,5
2017-02-05T16:16:44.764Z,5
2017-02-05T16:17:58.257Z,5
2017-02-05T16:19:12.037Z,0
2017-02-05T16:20:25.517Z,0
2017-02-05T16:21:39.775Z,0
2017-02-05T16:22:54.685Z,0
2017-02-05T16:24:09.064Z,0
2017-02-05T16:25:22.934Z,0
2017-02-05T16:26:36.889Z,0
2017-02-05T16:27:50.784Z,0
2017-02-05T16:29:04.882Z,0
2017-02-05T16:30:18.349Z,0
2017-02-05T16:31:32.329Z,0
2017-02-05T16:32:46.191Z,0
2017-02-05T16:33:59.908Z,0
2017-02-05T16:35:13.669Z,0
2017-02-05T16:36:27.670Z,0
2017-02-05T16:37:41.863Z,0
2017-02-05T16:38:55.485Z,0
2017-02-05T16:40:09.068Z,0
2017-02-05T16:41:22.966Z,0
2017-02-05T16:42:36.446Z,0
2017-02-05T16:43:50.528Z,0
2017-02-05T16:45:04.487Z,0
2017-02-05T16:46:18.225Z,0
2017-02-05T16:47:32.074Z,0
2017-02-05T16:48:48.322Z,0
2017-02-05T16:50:02.659Z,0
2017-02-05T16:51:16.296Z,0
2017-02-05T16:52:29.742Z,0
2017-02-05T16:53:43.657Z,0
2017-02-05T16:54:57.832Z,0
2017-02-05T16:56:11.718Z,0
2017-02-05T16:57:26.062Z,0
2017-02-05T16:58:40.233Z,0
2017-02-05T16:59:54.042Z,0
2017-02-05T17:01:07.916Z,0
2017-02-05T17:02:21.381Z,0
2017-02-05T17:03:35.115Z,0
2017-02-05T17:04:48.679Z,0
2017-02-05T17:06:03.112Z,0
2017-02-05T17:07:16.609Z,0
2017-02-05T17:08:30.227Z,0
2017-02-05T17:09:44.333Z,0
2017-02-05T17:10:58.371Z,0
2017-02-05T17:12:12.190Z,0
2017-02-05T17:13:41.929Z,0
2017-02-05T17:14:55.493Z,0
2017-02-05T17:16:09.079Z,0
2017-02-05T17:17:23.075Z,0
2017-02-05T17:18:36.924Z,0
2017-02-05T17:19:51.223Z,0
2017-02-05T17:21:05.102Z,0
2017-02-05T17:22:18.723Z,0
2017-02-05T17:23:32.169Z,0
2017-02-05T17:24:46.173Z,0
2017-02-05T17:26:00.409Z,0
2017-02-05T17:27:14.367Z,0
2017-02-05T17:28:28.373Z,0
2017-02-05T17:29:42.000Z,0
2017-02-05T17:30:55.510Z,0
2017-02-05T17:32:09.381Z,0
2017-02-05T17:33:22.798Z,0
2017-02-05T17:34:36.465Z,0
2017-02-05T17:35:50.334Z,0
2017-02-05T17:37:04.019Z,0
2017-02-05T17:38:18.201Z,0
2017-02-05T17:39:32.270Z,0
2017-02-05T17:40:45.908Z,0
2017-02-05T17:41:59.519Z,0
2017-02-05T17:43:12.975Z,0
2017-02-05T17:44:27.712Z,0
2017-02-05T17:45:41.217Z,0
2017-02-05T17:46:55.353Z,0